createdAt,value
2022-11-13T00:02:09.881Z,9.6
2022-11-13T00:07:09.967Z,9.6
2022-11-13T00:12:09.870Z,9.5
2022-11-13T00:17:09.902Z,9.6
2022-11-13T00:22:09.870Z,9.6
2022-11-13T00:27:09.901Z,9.6
2022-11-13T00:32:09.870Z,9.6
2022-11-13T00:37:09.864Z,9.6
2022-11-13T00:42:09.864Z,9.6
2022-11-13T00:47:09.865Z,9.5
2022-11-13T00:52:09.904Z,9.6
2022-11-13T00:57:09.898Z,9.5
2022-11-13T01:02:09.903Z,9.4
2022-11-13T01:07:09.926Z,9.5
2022-11-13T01:12:09.923Z,9.5
2022-11-13T01:17:09.878Z,9.4
2022-11-13T01:22:09.910Z,9.4
2022-11-13T01:27:09.885Z,9.2
2022-11-13T01:32:10.003Z,9.4
2022-11-13T01:37:09.892Z,9.4
2022-11-13T01:42:09.894Z,9.2
2022-11-13T01:47:09.896Z,9.2
2022-11-13T01:52:09.891Z,9.2
2022-11-13T01:57:09.892Z,9.1
2022-11-13T02:02:09.963Z,9.2
2022-11-13T02:07:09.921Z,9.2
2022-11-13T02:12:09.887Z,9.2
2022-11-13T02:17:09.892Z,9.2
2022-11-13T02:22:09.900Z,9.2
2022-11-13T02:27:09.897Z,9.4
2022-11-13T02:32:09.929Z,9.4
2022-11-13T02:37:09.899Z,9.3
2022-11-13T02:42:09.904Z,9.4
2022-11-13T02:47:09.935Z,9.3
2022-11-13T02:52:09.900Z,9.4
2022-11-13T02:57:09.903Z,9.5
2022-11-13T03:02:09.940Z,9.4
2022-11-13T03:07:09.992Z,9.4
2022-11-13T03:12:09.935Z,9.2
2022-11-13T03:17:09.934Z,9.2
2022-11-13T03:22:09.903Z,9.1
2022-11-13T03:27:09.941Z,9.2
2022-11-13T03:32:09.944Z,9.2
2022-11-13T03:37:09.941Z,9.2
2022-11-13T03:42:09.942Z,9.3
2022-11-13T03:47:09.940Z,9.4
2022-11-13T03:52:09.905Z,9.4
2022-11-13T03:57:09.939Z,9.2
2022-11-13T04:02:09.973Z,9.2
2022-11-13T04:07:09.987Z,9.3
2022-11-13T04:12:09.908Z,9.2
2022-11-13T04:17:10.023Z,8.8
2022-11-13T04:22:10.003Z,8.9
2022-11-13T04:27:10.041Z,9.0
2022-11-13T04:32:09.983Z,9.0
2022-11-13T04:37:10.054Z,9.0
2022-11-13T04:42:09.942Z,9.0
2022-11-13T04:47:09.975Z,9.2
2022-11-13T04:52:09.978Z,9.1
2022-11-13T04:57:09.980Z,9.2
2022-11-13T05:02:09.984Z,9.2
2022-11-13T05:07:10.036Z,9.2
2022-11-13T05:12:09.980Z,9.2
2022-11-13T05:17:09.996Z,9.2
2022-11-13T05:22:09.962Z,9.2
2022-11-13T05:27:15.835Z,9.2
2022-11-13T05:32:10.012Z,9.2
2022-11-13T05:37:09.976Z,9.3
2022-11-13T05:42:09.978Z,9.2
2022-11-13T05:47:10.010Z,9.3
2022-11-13T05:52:09.981Z,9.2
2022-11-13T05:57:10.007Z,9.3
2022-11-13T06:02:10.085Z,9.2
2022-11-13T06:07:10.109Z,9.3
2022-11-13T06:12:09.980Z,9.3
2022-11-13T06:17:10.025Z,9.4
2022-11-13T06:22:09.993Z,9.4
2022-11-13T06:27:10.030Z,9.4
2022-11-13T06:32:10.008Z,9.4
2022-11-13T06:37:10.013Z,9.4
2022-11-13T06:42:10.042Z,9.5
2022-11-13T06:47:10.007Z,9.5
2022-11-13T06:52:10.046Z,9.4
2022-11-13T06:57:10.063Z,9.4
2022-11-13T07:02:10.028Z,9.5
2022-11-13T07:07:10.120Z,9.5
2022-11-13T07:12:10.076Z,9.5
2022-11-13T07:17:10.759Z,9.5
2022-11-13T07:22:10.037Z,9.4
2022-11-13T07:27:10.039Z,9.5
2022-11-13T07:32:10.083Z,9.5
2022-11-13T07:37:10.057Z,9.5
2022-11-13T07:42:10.048Z,9.5
2022-11-13T07:47:10.087Z,9.5
2022-11-13T07:52:10.051Z,9.5
2022-11-13T07:57:10.053Z,9.6
2022-11-13T08:02:10.055Z,9.5
2022-11-13T08:07:10.072Z,9.5
2022-11-13T08:12:10.055Z,9.5
2022-11-13T08:17:10.048Z,9.5
2022-11-13T08:22:10.049Z,9.6
2022-11-13T08:27:10.057Z,9.6
2022-11-13T08:32:10.088Z,9.7
2022-11-13T08:37:10.093Z,9.7
2022-11-13T08:42:10.053Z,9.7
2022-11-13T08:47:10.060Z,9.7
2022-11-13T08:52:10.052Z,9.7
2022-11-13T08:57:10.088Z,9.7
2022-11-13T09:02:10.005Z,9.7
2022-11-13T09:07:10.173Z,9.7
2022-11-13T09:12:10.024Z,9.7
2022-11-13T09:17:10.007Z,9.8
2022-11-13T09:22:10.022Z,9.9
2022-11-13T09:27:10.022Z,9.9
2022-11-13T09:32:10.067Z,9.9
2022-11-13T09:37:10.082Z,10.0
2022-11-13T09:42:10.060Z,9.9
2022-11-13T09:47:10.049Z,9.9
2022-11-13T09:52:10.030Z,9.8
2022-11-13T09:57:10.019Z,9.9
2022-11-13T10:02:10.036Z,9.8
2022-11-13T10:07:10.085Z,9.9
2022-11-13T10:12:10.037Z,9.9
2022-11-13T10:17:10.053Z,9.9
2022-11-13T10:22:31.589Z,9.9
2022-11-13T10:27:10.050Z,10.0
2022-11-13T10:32:10.053Z,10.0
2022-11-13T10:37:10.048Z,10.0
2022-11-13T10:42:10.040Z,10.1
2022-11-13T10:47:10.045Z,10.2
2022-11-13T10:52:11.199Z,10.3
2022-11-13T10:57:10.051Z,10.4
2022-11-13T11:02:10.060Z,10.4
2022-11-13T11:07:21.549Z,10.5
2022-11-13T11:12:10.062Z,10.5
2022-11-13T11:17:10.057Z,10.5
2022-11-13T11:22:10.015Z,10.7
2022-11-13T11:27:10.061Z,10.6
2022-11-13T11:32:10.071Z,10.6
2022-11-13T11:37:10.052Z,10.5
2022-11-13T11:42:10.076Z,10.6
2022-11-13T11:47:10.080Z,10.7
2022-11-13T11:52:10.054Z,10.7
2022-11-13T11:57:10.078Z,10.8
2022-11-13T12:02:10.083Z,10.7
2022-11-13T12:07:10.119Z,10.7
2022-11-13T12:12:10.074Z,10.7
2022-11-13T12:17:16.814Z,10.7
2022-11-13T12:22:10.090Z,10.8
2022-11-13T12:27:10.074Z,11.0
2022-11-13T12:32:10.107Z,11.0
2022-11-13T12:37:10.091Z,10.9
2022-11-13T12:42:10.077Z,10.9
2022-11-13T12:47:10.093Z,10.9
2022-11-13T12:52:10.079Z,10.9
2022-11-13T12:57:10.103Z,11.0
2022-11-13T13:02:10.101Z,11.2
2022-11-13T13:07:10.232Z,11.2
2022-11-13T13:12:10.091Z,11.0
2022-11-13T13:17:10.096Z,10.8
2022-11-13T13:22:10.115Z,10.8
2022-11-13T13:27:10.122Z,10.8
2022-11-13T13:32:12.845Z,10.8
2022-11-13T13:37:10.088Z,10.7
2022-11-13T13:42:10.105Z,10.8
2022-11-13T13:47:10.097Z,10.7
2022-11-13T13:52:10.113Z,10.7
2022-11-13T13:57:10.105Z,10.7
2022-11-13T14:02:10.205Z,10.7
2022-11-13T14:07:10.142Z,10.7
2022-11-13T14:12:10.346Z,10.6
2022-11-13T14:17:10.111Z,10.7
2022-11-13T14:22:10.110Z,10.7
2022-11-13T14:27:10.132Z,10.6
2022-11-13T14:32:10.128Z,10.7
2022-11-13T14:37:10.108Z,10.8
2022-11-13T14:42:10.109Z,10.7
2022-11-13T14:47:10.107Z,10.7
2022-11-13T14:52:10.144Z,10.7
2022-11-13T14:57:10.100Z,10.7
2022-11-13T15:02:10.124Z,10.7
2022-11-13T15:07:10.176Z,10.8
2022-11-13T15:12:10.131Z,10.8
2022-11-13T15:17:10.109Z,10.9
2022-11-13T15:22:26.625Z,10.9
2022-11-13T15:27:10.142Z,10.9
2022-11-13T15:32:10.139Z,10.9
2022-11-13T15:37:10.125Z,10.8
2022-11-13T15:42:10.139Z,10.8
2022-11-13T15:47:10.116Z,10.8
2022-11-13T15:52:10.123Z,10.8
2022-11-13T15:57:10.167Z,10.8
2022-11-13T16:02:10.132Z,10.7
2022-11-13T16:07:10.207Z,10.7
2022-11-13T16:12:10.137Z,10.7
2022-11-13T16:17:10.146Z,10.7
2022-11-13T16:22:10.118Z,10.7
2022-11-13T16:27:10.149Z,10.7
2022-11-13T16:32:10.152Z,10.7
2022-11-13T16:37:10.129Z,10.7
2022-11-13T16:42:10.156Z,10.6
2022-11-13T16:47:10.143Z,10.6
2022-11-13T16:52:10.131Z,10.5
2022-11-13T16:57:10.144Z,10.6
2022-11-13T17:02:10.154Z,10.6
2022-11-13T17:07:10.226Z,10.6
2022-11-13T17:12:10.155Z,10.7
2022-11-13T17:17:10.163Z,10.7
2022-11-13T17:22:10.168Z,10.7
2022-11-13T17:27:10.157Z,10.8
2022-11-13T17:32:10.157Z,10.8
2022-11-13T17:37:10.149Z,10.9
2022-11-13T17:42:10.165Z,10.9
2022-11-13T17:47:10.164Z,10.9
2022-11-13T17:52:10.177Z,10.9
2022-11-13T17:57:10.277Z,10.9
2022-11-13T18:02:10.178Z,10.9
2022-11-13T18:07:10.215Z,10.9
2022-11-13T18:12:10.158Z,10.8
2022-11-13T18:17:10.181Z,10.8
2022-11-13T18:22:10.157Z,10.7
2022-11-13T18:27:10.179Z,10.7
2022-11-13T18:32:10.187Z,10.7
2022-11-13T18:37:10.175Z,10.7
2022-11-13T18:42:10.164Z,10.7
2022-11-13T18:47:10.186Z,10.6
2022-11-13T18:52:10.181Z,10.5
2022-11-13T18:57:10.192Z,10.6
2022-11-13T19:02:10.269Z,10.5
2022-11-13T19:07:10.205Z,10.5
2022-11-13T19:12:10.193Z,10.5
2022-11-13T19:17:10.187Z,10.5
2022-11-13T19:22:10.188Z,10.5
2022-11-13T19:27:10.196Z,10.5
2022-11-13T19:32:10.215Z,10.5
2022-11-13T19:37:13.759Z,10.5
2022-11-13T19:42:10.199Z,10.5
2022-11-13T19:47:10.194Z,10.5
2022-11-13T19:52:10.204Z,10.5
2022-11-13T19:57:10.207Z,10.5
2022-11-13T20:02:10.222Z,10.5
2022-11-13T20:07:10.237Z,10.5
2022-11-13T20:12:10.201Z,10.5
2022-11-13T20:17:10.207Z,10.5
2022-11-13T20:22:10.200Z,10.5
2022-11-13T20:27:10.212Z,10.5
2022-11-13T20:32:10.223Z,10.4
2022-11-13T20:37:10.203Z,10.4
2022-11-13T20:42:10.217Z,10.5
2022-11-13T20:47:10.209Z,10.4
2022-11-13T20:52:10.199Z,10.4
2022-11-13T20:57:10.210Z,10.3
2022-11-13T21:02:10.407Z,10.1
2022-11-13T21:07:10.383Z,10.2
2022-11-13T21:12:10.315Z,10.3
2022-11-13T21:17:10.271Z,10.4
2022-11-13T21:22:10.273Z,10.2
2022-11-13T21:27:10.278Z,10.2
2022-11-13T21:32:10.322Z,10.2
2022-11-13T21:37:10.281Z,10.2
2022-11-13T21:42:10.352Z,10.2
2022-11-13T21:47:10.279Z,10.2
2022-11-13T21:52:10.285Z,10.2
2022-11-13T21:57:10.278Z,10.2
2022-11-13T22:02:10.374Z,10.2
2022-11-13T22:07:10.348Z,10.2
2022-11-13T22:12:10.278Z,10.2
2022-11-13T22:17:10.285Z,10.3
2022-11-13T22:22:10.283Z,10.3
2022-11-13T22:27:10.280Z,10.2
2022-11-13T22:32:10.292Z,10.2
2022-11-13T22:37:10.285Z,10.1
2022-11-13T22:42:10.290Z,10.0
2022-11-13T22:47:10.286Z,10.0
2022-11-13T22:52:10.281Z,10.0
2022-11-13T22:57:10.291Z,10.1
2022-11-13T23:02:10.281Z,10.0
2022-11-13T23:07:10.360Z,10.0
2022-11-13T23:12:10.288Z,10.0
2022-11-13T23:17:10.325Z,10.0
2022-11-13T23:22:10.307Z,10.0
2022-11-13T23:27:10.285Z,9.9
2022-11-13T23:32:10.322Z,9.9
2022-11-13T23:37:10.288Z,9.9
2022-11-13T23:42:10.303Z,9.9
2022-11-13T23:47:10.291Z,9.9
2022-11-13T23:52:10.293Z,9.7
2022-11-13T23:57:10.290Z,9.8
